Terminal Aerodrome Forecast
Issued by NWS Bismarck, ND

Home | Current Version | Previous Version | Text Only | Print | Product List | Glossary Off
Versions: 1 2 3 4 5 6 7 8 9 10 11 12 13 14 15 16 17 18 19 20

000
FTUS43 KBIS 200500
TAFISN
TAF
KISN 200520Z 2006/2106 13009KT P6SM SKC
     FM201100 14005KT P6SM BKN120
     FM201700 15009KT P6SM -SHRA OVC080
      TEMPO 2017/2021 3SM TSRA BKN030CB OVC050
     FM202200 33008KT P6SM SHRA OVC060=

USA.gov is the U.S. government's official web portal to all federal, state and local government web resources and services.